sensor_id;sensor_type;location;lat;lon;timestamp;temperature;humidity
42907;DHT22;28552;51.146;6.576;2022-11-12T00:01:12;6.10;99.90
42907;DHT22;28552;51.146;6.576;2022-11-12T00:04:12;6.10;99.90
42907;DHT22;28552;51.146;6.576;2022-11-12T00:07:13;6.10;99.90
42907;DHT22;28552;51.146;6.576;2022-11-12T00:10:14;6.10;99.90
42907;DHT22;28552;51.146;6.576;2022-11-12T00:13:15;6.10;99.90
42907;DHT22;28552;51.146;6.576;2022-11-12T00:16:15;6.10;99.90
42907;DHT22;28552;51.146;6.576;2022-11-12T00:19:16;6.10;99.90
42907;DHT22;28552;51.146;6.576;2022-11-12T00:22:16;6.10;99.90
42907;DHT22;28552;51.146;6.576;2022-11-12T00:25:17;6.00;99.90
42907;DHT22;28552;51.146;6.576;2022-11-12T00:28:17;6.00;99.90
42907;DHT22;28552;51.146;6.576;2022-11-12T00:31:18;6.00;99.90
42907;DHT22;28552;51.146;6.576;2022-11-12T00:34:18;5.90;99.90
42907;DHT22;28552;51.146;6.576;2022-11-12T00:37:19;5.90;99.90
42907;DHT22;28552;51.146;6.576;2022-11-12T00:40:22;5.80;99.90
42907;DHT22;28552;51.146;6.576;2022-11-12T00:43:23;5.80;99.90
42907;DHT22;28552;51.146;6.576;2022-11-12T00:46:24;5.90;99.90
42907;DHT22;28552;51.146;6.576;2022-11-12T00:49:24;5.90;99.90
42907;DHT22;28552;51.146;6.576;2022-11-12T00:52:25;5.90;99.90
42907;DHT22;28552;51.146;6.576;2022-11-12T00:55:25;5.90;99.90
42907;DHT22;28552;51.146;6.576;2022-11-12T00:58:28;5.90;99.90
42907;DHT22;28552;51.146;6.576;2022-11-12T01:01:29;5.90;99.90
42907;DHT22;28552;51.146;6.576;2022-11-12T01:04:29;5.90;99.90
42907;DHT22;28552;51.146;6.576;2022-11-12T01:07:30;5.80;99.90
42907;DHT22;28552;51.146;6.576;2022-11-12T01:10:30;5.80;99.90
42907;DHT22;28552;51.146;6.576;2022-11-12T01:13:31;5.80;99.90
42907;DHT22;28552;51.146;6.576;2022-11-12T01:16:36;5.70;99.90
42907;DHT22;28552;51.146;6.576;2022-11-12T01:19:37;5.70;99.90
42907;DHT22;28552;51.146;6.576;2022-11-12T01:22:37;5.70;99.90
42907;DHT22;28552;51.146;6.576;2022-11-12T01:25:38;5.70;99.90
42907;DHT22;28552;51.146;6.576;2022-11-12T01:28:39;5.70;99.90
42907;DHT22;28552;51.146;6.576;2022-11-12T01:31:39;5.80;99.90
42907;DHT22;28552;51.146;6.576;2022-11-12T01:34:40;5.80;99.90
42907;DHT22;28552;51.146;6.576;2022-11-12T01:37:41;5.80;99.90
42907;DHT22;28552;51.146;6.576;2022-11-12T01:40:41;5.80;99.90
42907;DHT22;28552;51.146;6.576;2022-11-12T01:43:42;5.80;99.90
42907;DHT22;28552;51.146;6.576;2022-11-12T01:50:16;5.70;99.90
42907;DHT22;28552;51.146;6.576;2022-11-12T01:53:20;5.70;99.90
42907;DHT22;28552;51.146;6.576;2022-11-12T01:56:23;5.70;99.90
42907;DHT22;28552;51.146;6.576;2022-11-12T01:59:30;5.70;99.90
42907;DHT22;28552;51.146;6.576;2022-11-12T02:02:34;5.70;99.90
42907;DHT22;28552;51.146;6.576;2022-11-12T02:05:35;5.70;99.90
42907;DHT22;28552;51.146;6.576;2022-11-12T02:08:36;5.70;99.90
42907;DHT22;28552;51.146;6.576;2022-11-12T02:11:37;5.70;99.90
42907;DHT22;28552;51.146;6.576;2022-11-12T02:14:38;5.70;99.90
42907;DHT22;28552;51.146;6.576;2022-11-12T02:17:38;5.70;99.90
42907;DHT22;28552;51.146;6.576;2022-11-12T02:20:39;5.70;99.90
42907;DHT22;28552;51.146;6.576;2022-11-12T02:23:39;5.60;99.90
42907;DHT22;28552;51.146;6.576;2022-11-12T02:26:44;5.60;99.90
42907;DHT22;28552;51.146;6.576;2022-11-12T02:29:45;5.60;99.90
42907;DHT22;28552;51.146;6.576;2022-11-12T02:32:46;5.60;99.90
42907;DHT22;28552;51.146;6.576;2022-11-12T02:35:46;5.60;99.90
42907;DHT22;28552;51.146;6.576;2022-11-12T02:38:47;5.70;99.90
42907;DHT22;28552;51.146;6.576;2022-11-12T02:41:48;5.70;99.90
42907;DHT22;28552;51.146;6.576;2022-11-12T02:44:48;5.70;99.90
42907;DHT22;28552;51.146;6.576;2022-11-12T02:47:49;5.70;99.90
42907;DHT22;28552;51.146;6.576;2022-11-12T02:50:50;5.70;99.90
42907;DHT22;28552;51.146;6.576;2022-11-12T02:53:50;5.70;99.90
42907;DHT22;28552;51.146;6.576;2022-11-12T02:56:51;5.60;99.90
42907;DHT22;28552;51.146;6.576;2022-11-12T02:59:51;5.60;99.90
42907;DHT22;28552;51.146;6.576;2022-11-12T03:02:52;5.60;99.90
42907;DHT22;28552;51.146;6.576;2022-11-12T03:06:00;5.60;99.90
42907;DHT22;28552;51.146;6.576;2022-11-12T03:09:01;5.70;99.90
42907;DHT22;28552;51.146;6.576;2022-11-12T03:12:02;5.70;99.90
42907;DHT22;28552;51.146;6.576;2022-11-12T03:15:03;5.70;99.90
42907;DHT22;28552;51.146;6.576;2022-11-12T03:18:03;5.60;99.90
42907;DHT22;28552;51.146;6.576;2022-11-12T03:21:04;5.60;99.90
42907;DHT22;28552;51.146;6.576;2022-11-12T03:24:05;5.60;99.90
42907;DHT22;28552;51.146;6.576;2022-11-12T03:27:06;5.60;99.90
42907;DHT22;28552;51.146;6.576;2022-11-12T03:30:06;5.60;99.90
42907;DHT22;28552;51.146;6.576;2022-11-12T03:33:09;5.60;99.90
42907;DHT22;28552;51.146;6.576;2022-11-12T03:36:10;5.60;99.90
42907;DHT22;28552;51.146;6.576;2022-11-12T03:39:12;5.60;99.90
42907;DHT22;28552;51.146;6.576;2022-11-12T03:42:12;5.60;99.90
42907;DHT22;28552;51.146;6.576;2022-11-12T03:45:13;5.60;99.90
42907;DHT22;28552;51.146;6.576;2022-11-12T03:48:14;5.60;99.90
42907;DHT22;28552;51.146;6.576;2022-11-12T03:51:14;5.60;99.90
42907;DHT22;28552;51.146;6.576;2022-11-12T03:54:15;5.70;99.90
42907;DHT22;28552;51.146;6.576;2022-11-12T03:57:16;5.70;99.90
42907;DHT22;28552;51.146;6.576;2022-11-12T04:00:17;5.70;99.90
42907;DHT22;28552;51.146;6.576;2022-11-12T04:03:18;5.70;99.90
42907;DHT22;28552;51.146;6.576;2022-11-12T04:06:19;5.70;99.90
42907;DHT22;28552;51.146;6.576;2022-11-12T04:09:34;5.70;99.90
42907;DHT22;28552;51.146;6.576;2022-11-12T04:12:35;5.70;99.90
42907;DHT22;28552;51.146;6.576;2022-11-12T04:15:50;5.70;99.90
42907;DHT22;28552;51.146;6.576;2022-11-12T04:19:12;5.70;99.90
42907;DHT22;28552;51.146;6.576;2022-11-12T04:22:28;5.70;99.90
42907;DHT22;28552;51.146;6.576;2022-11-12T04:25:28;5.70;99.90
42907;DHT22;28552;51.146;6.576;2022-11-12T04:28:44;5.70;99.90
42907;DHT22;28552;51.146;6.576;2022-11-12T04:32:04;5.70;99.90
42907;DHT22;28552;51.146;6.576;2022-11-12T04:35:08;5.70;99.90
42907;DHT22;28552;51.146;6.576;2022-11-12T04:38:09;5.70;99.90
42907;DHT22;28552;51.146;6.576;2022-11-12T04:41:09;5.70;99.90
42907;DHT22;28552;51.146;6.576;2022-11-12T04:44:25;5.60;99.90
42907;DHT22;28552;51.146;6.576;2022-11-12T04:47:41;5.60;99.90
42907;DHT22;28552;51.146;6.576;2022-11-12T04:50:47;5.60;99.90
42907;DHT22;28552;51.146;6.576;2022-11-12T04:53:48;5.50;99.90
42907;DHT22;28552;51.146;6.576;2022-11-12T04:56:52;5.50;99.90
42907;DHT22;28552;51.146;6.576;2022-11-12T04:59:53;5.50;99.90
42907;DHT22;28552;51.146;6.576;2022-11-12T05:02:53;5.40;99.90
42907;DHT22;28552;51.146;6.576;2022-11-12T05:06:00;5.40;99.90
42907;DHT22;28552;51.146;6.576;2022-11-12T05:09:01;5.40;99.90
42907;DHT22;28552;51.146;6.576;2022-11-12T05:12:02;5.30;99.90
42907;DHT22;28552;51.146;6.576;2022-11-12T05:15:03;5.30;99.90
42907;DHT22;28552;51.146;6.576;2022-11-12T05:18:04;5.20;99.90
42907;DHT22;28552;51.146;6.576;2022-11-12T05:21:04;5.20;99.90
42907;DHT22;28552;51.146;6.576;2022-11-12T05:24:25;5.20;99.90
42907;DHT22;28552;51.146;6.576;2022-11-12T05:27:25;5.20;99.90
42907;DHT22;28552;51.146;6.576;2022-11-12T05:30:26;5.10;99.90
42907;DHT22;28552;51.146;6.576;2022-11-12T05:33:26;5.10;99.90
42907;DHT22;28552;51.146;6.576;2022-11-12T05:36:27;5.10;99.90
42907;DHT22;28552;51.146;6.576;2022-11-12T05:39:27;5.10;99.90
42907;DHT22;28552;51.146;6.576;2022-11-12T05:42:28;5.10;99.90
42907;DHT22;28552;51.146;6.576;2022-11-12T05:45:28;5.10;99.90
42907;DHT22;28552;51.146;6.576;2022-11-12T05:48:29;5.00;99.90
42907;DHT22;28552;51.146;6.576;2022-11-12T05:51:30;5.10;99.90
42907;DHT22;28552;51.146;6.576;2022-11-12T05:54:30;5.00;99.90
42907;DHT22;28552;51.146;6.576;2022-11-12T05:57:31;5.10;99.90
42907;DHT22;28552;51.146;6.576;2022-11-12T06:00:31;5.00;99.90
42907;DHT22;28552;51.146;6.576;2022-11-12T06:03:38;5.00;99.90
42907;DHT22;28552;51.146;6.576;2022-11-12T06:06:39;5.00;99.90
42907;DHT22;28552;51.146;6.576;2022-11-12T06:09:40;5.00;99.90
42907;DHT22;28552;51.146;6.576;2022-11-12T06:12:41;5.00;99.90
42907;DHT22;28552;51.146;6.576;2022-11-12T06:15:41;5.00;99.90
42907;DHT22;28552;51.146;6.576;2022-11-12T06:18:42;5.00;99.90
42907;DHT22;28552;51.146;6.576;2022-11-12T06:21:43;5.00;99.90
42907;DHT22;28552;51.146;6.576;2022-11-12T06:24:43;5.00;99.90
42907;DHT22;28552;51.146;6.576;2022-11-12T06:27:44;5.10;99.90
42907;DHT22;28552;51.146;6.576;2022-11-12T06:30:44;5.10;99.90
42907;DHT22;28552;51.146;6.576;2022-11-12T06:33:45;5.20;99.90
42907;DHT22;28552;51.146;6.576;2022-11-12T06:36:46;5.20;99.90
42907;DHT22;28552;51.146;6.576;2022-11-12T06:39:48;5.20;99.90
42907;DHT22;28552;51.146;6.576;2022-11-12T06:42:56;5.20;99.90
42907;DHT22;28552;51.146;6.576;2022-11-12T06:45:59;5.20;99.90
42907;DHT22;28552;51.146;6.576;2022-11-12T06:49:00;5.20;99.90
42907;DHT22;28552;51.146;6.576;2022-11-12T06:52:00;5.10;99.90
42907;DHT22;28552;51.146;6.576;2022-11-12T06:55:01;5.10;99.90
42907;DHT22;28552;51.146;6.576;2022-11-12T06:58:02;5.20;99.90
42907;DHT22;28552;51.146;6.576;2022-11-12T07:01:07;5.20;99.90
42907;DHT22;28552;51.146;6.576;2022-11-12T07:04:08;5.20;99.90
42907;DHT22;28552;51.146;6.576;2022-11-12T07:07:09;5.20;99.90
42907;DHT22;28552;51.146;6.576;2022-11-12T07:10:10;5.10;99.90
42907;DHT22;28552;51.146;6.576;2022-11-12T07:13:10;5.10;99.90
42907;DHT22;28552;51.146;6.576;2022-11-12T07:16:12;5.10;99.90
42907;DHT22;28552;51.146;6.576;2022-11-12T07:19:13;5.20;99.90
42907;DHT22;28552;51.146;6.576;2022-11-12T07:22:13;5.20;99.90
42907;DHT22;28552;51.146;6.576;2022-11-12T07:25:14;5.20;99.90
42907;DHT22;28552;51.146;6.576;2022-11-12T07:28:15;5.30;99.90
42907;DHT22;28552;51.146;6.576;2022-11-12T07:31:16;5.30;99.90
42907;DHT22;28552;51.146;6.576;2022-11-12T07:34:17;5.40;99.90
42907;DHT22;28552;51.146;6.576;2022-11-12T07:37:17;5.50;99.90
42907;DHT22;28552;51.146;6.576;2022-11-12T07:40:18;5.50;99.90
42907;DHT22;28552;51.146;6.576;2022-11-12T07:43:18;5.50;99.90
42907;DHT22;28552;51.146;6.576;2022-11-12T07:46:22;5.60;99.90
42907;DHT22;28552;51.146;6.576;2022-11-12T07:49:23;5.60;99.90
42907;DHT22;28552;51.146;6.576;2022-11-12T07:52:23;5.60;99.90
42907;DHT22;28552;51.146;6.576;2022-11-12T07:55:24;5.70;99.90
42907;DHT22;28552;51.146;6.576;2022-11-12T07:58:26;5.70;99.90
42907;DHT22;28552;51.146;6.576;2022-11-12T08:04:28;5.80;99.90
42907;DHT22;28552;51.146;6.576;2022-11-12T08:07:29;5.80;99.90
42907;DHT22;28552;51.146;6.576;2022-11-12T08:10:29;5.80;99.90
42907;DHT22;28552;51.146;6.576;2022-11-12T08:13:30;5.90;99.90
42907;DHT22;28552;51.146;6.576;2022-11-12T08:16:30;5.90;99.90
42907;DHT22;28552;51.146;6.576;2022-11-12T08:19:31;5.90;99.90
42907;DHT22;28552;51.146;6.576;2022-11-12T08:22:31;5.90;99.90
42907;DHT22;28552;51.146;6.576;2022-11-12T08:25:32;6.00;99.90
42907;DHT22;28552;51.146;6.576;2022-11-12T08:28:35;6.10;99.90
42907;DHT22;28552;51.146;6.576;2022-11-12T08:31:35;6.10;99.90
42907;DHT22;28552;51.146;6.576;2022-11-12T08:34:36;6.20;99.90
42907;DHT22;28552;51.146;6.576;2022-11-12T08:37:40;6.30;99.90
42907;DHT22;28552;51.146;6.576;2022-11-12T08:40:41;6.40;99.90
42907;DHT22;28552;51.146;6.576;2022-11-12T08:43:41;6.50;99.90
42907;DHT22;28552;51.146;6.576;2022-11-12T08:46:42;6.50;99.90
42907;DHT22;28552;51.146;6.576;2022-11-12T08:49:42;6.70;99.90
42907;DHT22;28552;51.146;6.576;2022-11-12T08:52:43;6.70;99.90
42907;DHT22;28552;51.146;6.576;2022-11-12T08:55:43;6.80;99.90
42907;DHT22;28552;51.146;6.576;2022-11-12T08:58:44;6.80;99.90
42907;DHT22;28552;51.146;6.576;2022-11-12T09:01:44;6.90;99.90
42907;DHT22;28552;51.146;6.576;2022-11-12T09:04:45;7.00;99.90
42907;DHT22;28552;51.146;6.576;2022-11-12T09:07:46;7.10;99.90
42907;DHT22;28552;51.146;6.576;2022-11-12T09:10:47;7.10;99.90
42907;DHT22;28552;51.146;6.576;2022-11-12T09:13:51;7.20;99.90
42907;DHT22;28552;51.146;6.576;2022-11-12T09:16:52;7.30;99.90
42907;DHT22;28552;51.146;6.576;2022-11-12T09:19:52;7.40;99.90
42907;DHT22;28552;51.146;6.576;2022-11-12T09:22:57;7.40;99.90
42907;DHT22;28552;51.146;6.576;2022-11-12T09:25:58;7.60;99.90
42907;DHT22;28552;51.146;6.576;2022-11-12T09:28:59;7.70;99.90
42907;DHT22;28552;51.146;6.576;2022-11-12T09:31:59;7.80;99.90
42907;DHT22;28552;51.146;6.576;2022-11-12T09:35:00;7.90;99.90
42907;DHT22;28552;51.146;6.576;2022-11-12T09:38:00;7.90;99.90
42907;DHT22;28552;51.146;6.576;2022-11-12T09:41:18;8.00;99.90
42907;DHT22;28552;51.146;6.576;2022-11-12T09:44:20;8.10;99.90
42907;DHT22;28552;51.146;6.576;2022-11-12T09:47:35;8.10;99.90
42907;DHT22;28552;51.146;6.576;2022-11-12T09:50:47;8.10;99.90
42907;DHT22;28552;51.146;6.576;2022-11-12T09:54:12;8.10;99.90
42907;DHT22;28552;51.146;6.576;2022-11-12T09:57:15;8.20;99.90
42907;DHT22;28552;51.146;6.576;2022-11-12T10:00:17;8.30;99.90
42907;DHT22;28552;51.146;6.576;2022-11-12T10:03:32;8.40;99.90
42907;DHT22;28552;51.146;6.576;2022-11-12T10:09:58;8.60;99.90
42907;DHT22;28552;51.146;6.576;2022-11-12T10:20:05;8.90;99.90
42907;DHT22;28552;51.146;6.576;2022-11-12T10:23:26;8.90;99.90
42907;DHT22;28552;51.146;6.576;2022-11-12T10:26:30;9.00;99.90
42907;DHT22;28552;51.146;6.576;2022-11-12T10:29:37;9.10;99.90
42907;DHT22;28552;51.146;6.576;2022-11-12T10:32:42;9.20;99.90
42907;DHT22;28552;51.146;6.576;2022-11-12T10:35:43;9.30;99.90
42907;DHT22;28552;51.146;6.576;2022-11-12T10:38:44;9.40;99.90
42907;DHT22;28552;51.146;6.576;2022-11-12T10:42:01;9.50;99.90
42907;DHT22;28552;51.146;6.576;2022-11-12T10:45:18;9.50;99.90
42907;DHT22;28552;51.146;6.576;2022-11-12T10:48:24;9.60;99.90
42907;DHT22;28552;51.146;6.576;2022-11-12T10:54:35;9.80;99.90
42907;DHT22;28552;51.146;6.576;2022-11-12T10:57:36;9.90;99.90
42907;DHT22;28552;51.146;6.576;2022-11-12T11:00:50;10.00;99.90
42907;DHT22;28552;51.146;6.576;2022-11-12T11:03:56;10.10;99.90
42907;DHT22;28552;51.146;6.576;2022-11-12T11:07:13;10.10;99.90
42907;DHT22;28552;51.146;6.576;2022-11-12T11:13:26;10.30;99.90
42907;DHT22;28552;51.146;6.576;2022-11-12T11:16:28;10.40;99.90
42907;DHT22;28552;51.146;6.576;2022-11-12T11:19:41;10.50;99.90
42907;DHT22;28552;51.146;6.576;2022-11-12T11:22:44;10.60;99.90
42907;DHT22;28552;51.146;6.576;2022-11-12T11:25:48;10.60;99.90
42907;DHT22;28552;51.146;6.576;2022-11-12T11:28:59;10.70;99.90
42907;DHT22;28552;51.146;6.576;2022-11-12T11:38:48;11.10;99.90
42907;DHT22;28552;51.146;6.576;2022-11-12T11:42:13;11.20;99.90
42907;DHT22;28552;51.146;6.576;2022-11-12T11:45:45;11.30;99.90
42907;DHT22;28552;51.146;6.576;2022-11-12T11:49:03;11.40;99.90
42907;DHT22;28552;51.146;6.576;2022-11-12T11:58:48;11.60;99.90
42907;DHT22;28552;51.146;6.576;2022-11-12T12:02:09;11.60;99.90
42907;DHT22;28552;51.146;6.576;2022-11-12T12:05:38;11.60;99.90
42907;DHT22;28552;51.146;6.576;2022-11-12T12:12:03;11.70;99.90
42907;DHT22;28552;51.146;6.576;2022-11-12T12:15:29;11.70;99.90
42907;DHT22;28552;51.146;6.576;2022-11-12T12:18:52;11.80;99.90
42907;DHT22;28552;51.146;6.576;2022-11-12T12:21:56;11.90;99.90
42907;DHT22;28552;51.146;6.576;2022-11-12T12:25:06;12.00;99.90
42907;DHT22;28552;51.146;6.576;2022-11-12T12:28:23;12.00;99.90
42907;DHT22;28552;51.146;6.576;2022-11-12T12:31:31;12.00;99.90
42907;DHT22;28552;51.146;6.576;2022-11-12T12:34:38;12.10;99.90
42907;DHT22;28552;51.146;6.576;2022-11-12T12:37:49;12.10;99.90
42907;DHT22;28552;51.146;6.576;2022-11-12T12:44:11;12.20;99.90
42907;DHT22;28552;51.146;6.576;2022-11-12T12:47:12;12.30;99.90
42907;DHT22;28552;51.146;6.576;2022-11-12T12:50:14;12.40;99.90
42907;DHT22;28552;51.146;6.576;2022-11-12T12:59:33;12.50;99.90
42907;DHT22;28552;51.146;6.576;2022-11-12T13:02:36;12.50;99.90
42907;DHT22;28552;51.146;6.576;2022-11-12T13:05:37;12.50;99.90
42907;DHT22;28552;51.146;6.576;2022-11-12T13:08:40;12.60;99.90
42907;DHT22;28552;51.146;6.576;2022-11-12T13:15:12;12.60;99.90
42907;DHT22;28552;51.146;6.576;2022-11-12T13:22:32;12.70;99.90
42907;DHT22;28552;51.146;6.576;2022-11-12T13:25:34;12.70;99.90
42907;DHT22;28552;51.146;6.576;2022-11-12T13:28:34;12.70;99.90
42907;DHT22;28552;51.146;6.576;2022-11-12T13:31:35;12.70;99.90
42907;DHT22;28552;51.146;6.576;2022-11-12T13:34:37;12.70;99.90
42907;DHT22;28552;51.146;6.576;2022-11-12T13:40:52;12.80;99.90
42907;DHT22;28552;51.146;6.576;2022-11-12T13:43:55;12.80;99.90
42907;DHT22;28552;51.146;6.576;2022-11-12T13:46:56;12.80;99.90
42907;DHT22;28552;51.146;6.576;2022-11-12T13:49:59;12.80;99.90
42907;DHT22;28552;51.146;6.576;2022-11-12T13:53:00;12.80;99.90
42907;DHT22;28552;51.146;6.576;2022-11-12T13:56:02;12.80;99.90
42907;DHT22;28552;51.146;6.576;2022-11-12T13:59:15;12.80;99.90
42907;DHT22;28552;51.146;6.576;2022-11-12T14:02:21;12.80;99.90
42907;DHT22;28552;51.146;6.576;2022-11-12T14:05:26;12.70;99.90
42907;DHT22;28552;51.146;6.576;2022-11-12T14:08:47;12.70;99.90
42907;DHT22;28552;51.146;6.576;2022-11-12T14:12:10;12.70;99.90
42907;DHT22;28552;51.146;6.576;2022-11-12T14:18:54;12.70;99.90
42907;DHT22;28552;51.146;6.576;2022-11-12T14:21:59;12.70;99.90
42907;DHT22;28552;51.146;6.576;2022-11-12T14:25:01;12.70;99.90
42907;DHT22;28552;51.146;6.576;2022-11-12T14:28:02;12.70;99.90
42907;DHT22;28552;51.146;6.576;2022-11-12T14:31:03;12.70;99.90
42907;DHT22;28552;51.146;6.576;2022-11-12T14:34:19;12.70;99.90
42907;DHT22;28552;51.146;6.576;2022-11-12T14:37:36;12.70;99.90
42907;DHT22;28552;51.146;6.576;2022-11-12T14:40:53;12.70;99.90
42907;DHT22;28552;51.146;6.576;2022-11-12T14:43:56;12.60;99.90
42907;DHT22;28552;51.146;6.576;2022-11-12T14:46:57;12.60;99.90
42907;DHT22;28552;51.146;6.576;2022-11-12T14:49:58;12.60;99.90
42907;DHT22;28552;51.146;6.576;2022-11-12T14:53:04;12.50;99.90
42907;DHT22;28552;51.146;6.576;2022-11-12T14:56:11;12.50;99.90
42907;DHT22;28552;51.146;6.576;2022-11-12T14:59:15;12.50;99.90
42907;DHT22;28552;51.146;6.576;2022-11-12T15:02:20;12.40;99.90
42907;DHT22;28552;51.146;6.576;2022-11-12T15:05:27;12.40;99.90
42907;DHT22;28552;51.146;6.576;2022-11-12T15:08:31;12.30;99.90
42907;DHT22;28552;51.146;6.576;2022-11-12T15:11:44;12.30;99.90
42907;DHT22;28552;51.146;6.576;2022-11-12T15:14:46;12.20;99.90
42907;DHT22;28552;51.146;6.576;2022-11-12T15:17:56;12.10;99.90
42907;DHT22;28552;51.146;6.576;2022-11-12T15:27:26;11.90;99.90
42907;DHT22;28552;51.146;6.576;2022-11-12T15:30:29;11.70;99.90
42907;DHT22;28552;51.146;6.576;2022-11-12T15:33:30;11.60;99.90
42907;DHT22;28552;51.146;6.576;2022-11-12T15:36:31;11.50;99.90
42907;DHT22;28552;51.146;6.576;2022-11-12T15:39:38;11.40;99.90
42907;DHT22;28552;51.146;6.576;2022-11-12T15:42:41;11.30;99.90
42907;DHT22;28552;51.146;6.576;2022-11-12T15:45:42;11.20;99.90
42907;DHT22;28552;51.146;6.576;2022-11-12T15:48:42;11.10;99.90
42907;DHT22;28552;51.146;6.576;2022-11-12T15:51:43;11.00;99.90
42907;DHT22;28552;51.146;6.576;2022-11-12T15:54:43;10.80;99.90
42907;DHT22;28552;51.146;6.576;2022-11-12T15:57:47;10.60;99.90
42907;DHT22;28552;51.146;6.576;2022-11-12T16:00:48;10.40;99.90
42907;DHT22;28552;51.146;6.576;2022-11-12T16:03:49;10.30;99.90
42907;DHT22;28552;51.146;6.576;2022-11-12T16:06:49;10.20;99.90
42907;DHT22;28552;51.146;6.576;2022-11-12T16:09:50;10.10;99.90
42907;DHT22;28552;51.146;6.576;2022-11-12T16:12:56;10.00;99.90
42907;DHT22;28552;51.146;6.576;2022-11-12T16:15:57;9.90;99.90
42907;DHT22;28552;51.146;6.576;2022-11-12T16:18:58;9.90;99.90
42907;DHT22;28552;51.146;6.576;2022-11-12T16:21:59;9.80;99.90
42907;DHT22;28552;51.146;6.576;2022-11-12T16:25:00;9.70;99.90
42907;DHT22;28552;51.146;6.576;2022-11-12T16:28:01;9.70;99.90
42907;DHT22;28552;51.146;6.576;2022-11-12T16:31:02;9.60;99.90
42907;DHT22;28552;51.146;6.576;2022-11-12T16:34:02;9.60;99.90
42907;DHT22;28552;51.146;6.576;2022-11-12T16:37:03;9.60;99.90
42907;DHT22;28552;51.146;6.576;2022-11-12T16:40:05;9.50;99.90
42907;DHT22;28552;51.146;6.576;2022-11-12T16:43:07;9.40;99.90
42907;DHT22;28552;51.146;6.576;2022-11-12T16:46:19;9.30;99.90
42907;DHT22;28552;51.146;6.576;2022-11-12T16:49:23;9.30;99.90
42907;DHT22;28552;51.146;6.576;2022-11-12T16:52:24;9.20;99.90
42907;DHT22;28552;51.146;6.576;2022-11-12T16:55:25;9.20;99.90
42907;DHT22;28552;51.146;6.576;2022-11-12T16:58:25;9.10;99.90
42907;DHT22;28552;51.146;6.576;2022-11-12T17:01:28;9.00;99.90
42907;DHT22;28552;51.146;6.576;2022-11-12T17:04:29;9.00;99.90
42907;DHT22;28552;51.146;6.576;2022-11-12T17:07:29;8.90;99.90
42907;DHT22;28552;51.146;6.576;2022-11-12T17:10:30;8.90;99.90
42907;DHT22;28552;51.146;6.576;2022-11-12T17:13:30;8.90;99.90
42907;DHT22;28552;51.146;6.576;2022-11-12T17:16:31;8.80;99.90
42907;DHT22;28552;51.146;6.576;2022-11-12T17:19:32;8.80;99.90
42907;DHT22;28552;51.146;6.576;2022-11-12T17:22:32;8.70;99.90
42907;DHT22;28552;51.146;6.576;2022-11-12T17:25:33;8.70;99.90
42907;DHT22;28552;51.146;6.576;2022-11-12T17:28:34;8.70;99.90
42907;DHT22;28552;51.146;6.576;2022-11-12T17:31:34;8.70;99.90
42907;DHT22;28552;51.146;6.576;2022-11-12T17:34:35;8.70;99.90
42907;DHT22;28552;51.146;6.576;2022-11-12T17:37:35;8.70;99.90
42907;DHT22;28552;51.146;6.576;2022-11-12T17:40:36;8.70;99.90
42907;DHT22;28552;51.146;6.576;2022-11-12T17:43:37;8.70;99.90
42907;DHT22;28552;51.146;6.576;2022-11-12T17:46:38;8.60;99.90
42907;DHT22;28552;51.146;6.576;2022-11-12T17:49:38;8.60;99.90
42907;DHT22;28552;51.146;6.576;2022-11-12T17:52:39;8.60;99.90
42907;DHT22;28552;51.146;6.576;2022-11-12T17:55:40;8.60;99.90
42907;DHT22;28552;51.146;6.576;2022-11-12T17:58:40;8.60;99.90
42907;DHT22;28552;51.146;6.576;2022-11-12T18:01:41;8.70;99.90
42907;DHT22;28552;51.146;6.576;2022-11-12T18:04:42;8.70;99.90
42907;DHT22;28552;51.146;6.576;2022-11-12T18:07:42;8.80;99.90
42907;DHT22;28552;51.146;6.576;2022-11-12T18:10:43;8.80;99.90
42907;DHT22;28552;51.146;6.576;2022-11-12T18:13:44;8.90;99.90
42907;DHT22;28552;51.146;6.576;2022-11-12T18:16:45;8.90;99.90
42907;DHT22;28552;51.146;6.576;2022-11-12T18:19:46;8.90;99.90
42907;DHT22;28552;51.146;6.576;2022-11-12T18:22:46;9.00;99.90
42907;DHT22;28552;51.146;6.576;2022-11-12T18:25:47;9.00;99.90
42907;DHT22;28552;51.146;6.576;2022-11-12T18:28:52;9.10;99.90
42907;DHT22;28552;51.146;6.576;2022-11-12T18:31:53;9.20;99.90
42907;DHT22;28552;51.146;6.576;2022-11-12T18:34:54;9.40;99.90
42907;DHT22;28552;51.146;6.576;2022-11-12T18:37:55;9.40;99.90
42907;DHT22;28552;51.146;6.576;2022-11-12T18:41:00;9.50;99.90
42907;DHT22;28552;51.146;6.576;2022-11-12T18:44:01;9.50;99.90
42907;DHT22;28552;51.146;6.576;2022-11-12T18:47:02;9.60;99.90
42907;DHT22;28552;51.146;6.576;2022-11-12T18:50:03;9.60;99.90
42907;DHT22;28552;51.146;6.576;2022-11-12T18:53:04;9.60;99.90
42907;DHT22;28552;51.146;6.576;2022-11-12T18:56:07;9.70;99.90
42907;DHT22;28552;51.146;6.576;2022-11-12T18:59:08;9.70;99.90
42907;DHT22;28552;51.146;6.576;2022-11-12T19:02:10;9.80;99.90
42907;DHT22;28552;51.146;6.576;2022-11-12T19:05:11;9.80;99.90
42907;DHT22;28552;51.146;6.576;2022-11-12T19:08:12;9.80;99.90
42907;DHT22;28552;51.146;6.576;2022-11-12T19:11:14;9.70;99.90
42907;DHT22;28552;51.146;6.576;2022-11-12T19:14:15;9.70;99.90
42907;DHT22;28552;51.146;6.576;2022-11-12T19:17:15;9.70;99.90
42907;DHT22;28552;51.146;6.576;2022-11-12T19:20:16;9.70;99.90
42907;DHT22;28552;51.146;6.576;2022-11-12T19:23:16;9.60;99.90
42907;DHT22;28552;51.146;6.576;2022-11-12T19:26:18;9.60;99.90
42907;DHT22;28552;51.146;6.576;2022-11-12T19:29:18;9.60;99.90
42907;DHT22;28552;51.146;6.576;2022-11-12T19:32:19;9.60;99.90
42907;DHT22;28552;51.146;6.576;2022-11-12T19:35:20;9.60;99.90
42907;DHT22;28552;51.146;6.576;2022-11-12T19:38:21;9.50;99.90
42907;DHT22;28552;51.146;6.576;2022-11-12T19:41:22;9.50;99.90
42907;DHT22;28552;51.146;6.576;2022-11-12T19:44:23;9.40;99.90
42907;DHT22;28552;51.146;6.576;2022-11-12T19:47:24;9.40;99.90
42907;DHT22;28552;51.146;6.576;2022-11-12T19:50:24;9.30;99.90
42907;DHT22;28552;51.146;6.576;2022-11-12T19:53:29;9.30;99.90
42907;DHT22;28552;51.146;6.576;2022-11-12T19:56:32;9.20;99.90
42907;DHT22;28552;51.146;6.576;2022-11-12T19:59:32;9.20;99.90
42907;DHT22;28552;51.146;6.576;2022-11-12T20:02:33;9.10;99.90
42907;DHT22;28552;51.146;6.576;2022-11-12T20:05:34;9.10;99.90
42907;DHT22;28552;51.146;6.576;2022-11-12T20:08:35;9.00;99.90
42907;DHT22;28552;51.146;6.576;2022-11-12T20:11:35;9.00;99.90
42907;DHT22;28552;51.146;6.576;2022-11-12T20:14:36;9.00;99.90
42907;DHT22;28552;51.146;6.576;2022-11-12T20:17:37;8.90;99.90
42907;DHT22;28552;51.146;6.576;2022-11-12T20:20:38;8.90;99.90
42907;DHT22;28552;51.146;6.576;2022-11-12T20:23:39;8.90;99.90
42907;DHT22;28552;51.146;6.576;2022-11-12T20:26:42;9.00;99.90
42907;DHT22;28552;51.146;6.576;2022-11-12T20:29:42;9.00;99.90
42907;DHT22;28552;51.146;6.576;2022-11-12T20:32:43;9.00;99.90
42907;DHT22;28552;51.146;6.576;2022-11-12T20:35:43;9.10;99.90
42907;DHT22;28552;51.146;6.576;2022-11-12T20:38:45;9.10;99.90
42907;DHT22;28552;51.146;6.576;2022-11-12T20:41:46;9.20;99.90